Time;durP1;ratioP1;P1;durP2;ratioP2;P2;SDS_P1;SDS_P2;PMS_P1;PMS_P2;Temp;Humidity;BMP_temperature;BMP_pressure;BME280_temperature;BME280_humidity;BME280_pressure;Samples;Min_cycle;Max_cycle;Signal;HPM_P1;HPM_P2
2023/09/10 00:01:38;;;;;;;13.90;12.55;;;22.40;99.90;;;;;;4955156;28;20027;-77
2023/09/10 00:04:04;;;;;;;13.07;11.30;;;22.50;99.90;;;;;;4966242;28;20026;-77
2023/09/10 00:06:32;;;;;;;12.93;11.50;;;22.40;99.90;;;;;;4956096;28;20023;-77
2023/09/10 00:08:58;;;;;;;15.70;12.80;;;22.40;99.90;;;;;;4954740;28;20023;-77
2023/09/10 00:11:25;;;;;;;14.52;13.07;;;22.40;99.90;;;;;;4964873;28;20400;-77
2023/09/10 00:13:51;;;;;;;13.93;12.52;;;22.50;99.90;;;;;;4955791;28;20031;-77
2023/09/10 00:16:16;;;;;;;13.50;12.15;;;22.50;99.90;;;;;;4962739;28;20031;-77
2023/09/10 00:18:42;;;;;;;13.82;12.27;;;22.50;99.90;;;;;;4960446;28;20509;-78
2023/09/10 00:21:07;;;;;;;12.90;11.60;;;22.40;99.90;;;;;;4954973;28;20018;-77
2023/09/10 00:23:33;;;;;;;13.63;12.23;;;22.40;99.90;;;;;;4959792;28;20086;-77
2023/09/10 00:25:59;;;;;;;14.13;12.63;;;22.50;99.90;;;;;;4950388;28;20035;-78
2023/09/10 00:28:24;;;;;;;13.80;12.07;;;22.40;99.90;;;;;;4943421;29;20019;-77
2023/09/10 00:30:54;;;;;;;17.33;13.60;;;22.40;99.90;;;;;;4961862;28;20110;-77
2023/09/10 00:33:19;;;;;;;13.02;11.75;;;22.40;99.90;;;;;;4955172;28;20493;-77
2023/09/10 00:35:45;;;;;;;14.93;13.13;;;22.40;99.90;;;;;;4957080;28;20097;-77
2023/09/10 00:38:11;;;;;;;14.07;12.68;;;22.40;99.90;;;;;;4948936;28;20116;-77
2023/09/10 00:40:36;;;;;;;15.02;13.52;;;22.40;99.90;;;;;;4958556;28;20055;-76
2023/09/10 00:43:02;;;;;;;14.13;12.73;;;22.40;99.90;;;;;;4962636;28;20454;-77
2023/09/10 00:45:29;;;;;;;16.35;14.65;;;22.30;99.90;;;;;;4956330;28;20496;-77
2023/09/10 00:47:55;;;;;;;14.98;13.40;;;22.40;99.90;;;;;;4955058;28;20027;-77
2023/09/10 00:50:22;;;;;;;15.70;14.07;;;22.30;99.90;;;;;;4962220;28;20074;-77
2023/09/10 00:52:52;;;;;;;17.63;15.25;;;22.30;99.90;;;;;;4960416;28;20044;-77
2023/09/10 00:55:19;;;;;;;14.63;13.13;;;22.30;99.90;;;;;;4954219;28;20118;-76
2023/09/10 00:57:45;;;;;;;17.48;15.40;;;22.30;99.90;;;;;;4957899;28;20375;-77
2023/09/10 01:00:12;;;;;;;16.35;14.75;;;22.20;99.90;;;;;;4944541;28;20082;-77
2023/09/10 01:02:44;;;;;;;16.38;14.75;;;22.20;99.90;;;;;;4948904;28;20027;-77
2023/09/10 01:05:13;;;;;;;16.88;15.18;;;22.20;99.90;;;;;;4961991;28;20520;-77
2023/09/10 01:07:39;;;;;;;16.55;14.88;;;22.20;99.90;;;;;;4956576;28;20034;-77
2023/09/10 01:10:07;;;;;;;16.95;14.98;;;22.20;99.90;;;;;;4954306;28;20024;-77
2023/09/10 01:12:38;;;;;;;18.05;16.15;;;22.20;99.90;;;;;;4954588;28;20117;-77
2023/09/10 01:15:28;;;;;;;15.32;13.82;;;22.10;99.90;;;;;;4941450;29;20127;-77
2023/09/10 01:18:08;;;;;;;15.57;13.97;;;22.10;99.90;;;;;;4962396;28;20047;-76
2023/09/10 01:20:55;;;;;;;18.65;15.10;;;22.10;99.90;;;;;;4943177;28;20030;-77
2023/09/10 01:23:41;;;;;;;17.10;14.63;;;22.10;99.90;;;;;;4937023;29;20930;-77
2023/09/10 01:26:07;;;;;;;16.63;15.02;;;22.10;99.90;;;;;;4954250;28;20031;-76
2023/09/10 01:28:32;;;;;;;16.80;15.02;;;22.10;99.90;;;;;;4956590;28;20077;-76
2023/09/10 01:30:58;;;;;;;16.73;15.13;;;22.00;99.90;;;;;;4953916;28;20043;-76
2023/09/10 01:33:31;;;;;;;18.30;16.40;;;22.00;99.90;;;;;;4961678;28;20020;-77
2023/09/10 01:36:14;;;;;;;18.15;16.20;;;22.00;99.90;;;;;;4943932;28;20030;-77
2023/09/10 01:39:06;;;;;;;16.95;15.25;;;21.90;99.90;;;;;;4944099;28;20030;-77
2023/09/10 01:41:34;;;;;;;17.02;15.32;;;21.90;99.90;;;;;;4957137;28;20393;-77
2023/09/10 01:44:00;;;;;;;17.15;15.48;;;21.90;99.90;;;;;;4945563;28;20162;-76
2023/09/10 01:46:27;;;;;;;18.10;16.20;;;21.90;99.90;;;;;;4965720;28;20421;-77
2023/09/10 01:48:54;;;;;;;19.00;15.95;;;21.90;99.90;;;;;;4959812;28;20051;-77
2023/09/10 01:51:20;;;;;;;17.35;15.45;;;21.90;99.90;;;;;;4957617;28;20031;-77
2023/09/10 01:53:49;;;;;;;18.00;16.30;;;21.80;99.90;;;;;;4965671;28;20077;-77
2023/09/10 01:56:14;;;;;;;18.88;16.63;;;21.80;99.90;;;;;;4963741;28;20030;-76
2023/09/10 01:58:40;;;;;;;19.17;17.17;;;21.80;99.90;;;;;;4940006;28;20081;-77
2023/09/10 02:01:06;;;;;;;19.25;17.25;;;21.80;99.90;;;;;;4961164;28;20026;-77
2023/09/10 02:03:32;;;;;;;18.38;16.48;;;21.80;99.90;;;;;;4964777;28;20054;-77
2023/09/10 02:06:00;;;;;;;17.33;15.60;;;21.90;99.90;;;;;;4946057;29;20106;-77
2023/09/10 02:08:26;;;;;;;16.60;14.95;;;21.80;99.90;;;;;;4948323;28;20174;-77
2023/09/10 02:10:51;;;;;;;19.15;17.20;;;21.80;99.90;;;;;;4955399;28;20110;-77
2023/09/10 02:13:17;;;;;;;17.95;16.15;;;21.80;99.90;;;;;;4935006;29;20498;-76
2023/09/10 02:15:42;;;;;;;18.00;16.30;;;21.80;99.90;;;;;;4948149;28;20034;-77
2023/09/10 02:18:08;;;;;;;20.60;16.05;;;21.80;99.90;;;;;;4958032;28;20855;-77
2023/09/10 02:20:36;;;;;;;17.25;15.30;;;21.80;99.90;;;;;;4958401;28;20042;-77
2023/09/10 02:23:02;;;;;;;19.23;17.23;;;21.80;99.90;;;;;;4949584;29;20413;-77
2023/09/10 02:25:28;;;;;;;18.35;16.48;;;21.80;99.90;;;;;;4962359;28;20442;-77
2023/09/10 02:27:54;;;;;;;17.13;15.38;;;21.80;99.90;;;;;;4957607;28;20509;-77
2023/09/10 02:30:19;;;;;;;19.73;17.55;;;21.80;99.90;;;;;;4944372;29;20046;-77
2023/09/10 02:32:45;;;;;;;20.73;16.63;;;21.80;99.90;;;;;;4964834;28;20085;-77
2023/09/10 02:35:11;;;;;;;20.13;17.17;;;21.80;99.90;;;;;;4940613;28;20489;-77
2023/09/10 02:37:36;;;;;;;17.70;15.82;;;21.70;99.90;;;;;;4958026;28;20054;-77
2023/09/10 02:40:04;;;;;;;17.38;15.55;;;21.70;99.90;;;;;;4964452;28;20051;-77
2023/09/10 02:42:30;;;;;;;19.60;17.70;;;21.80;99.90;;;;;;4944551;28;20019;-77
2023/09/10 02:44:55;;;;;;;19.05;17.05;;;21.70;99.90;;;;;;4956752;28;20026;-77
2023/09/10 02:47:21;;;;;;;17.67;15.88;;;21.70;99.90;;;;;;4961694;28;20034;-77
2023/09/10 02:49:47;;;;;;;17.90;16.17;;;21.70;99.90;;;;;;4947498;28;20019;-77
2023/09/10 02:52:12;;;;;;;19.33;17.33;;;21.70;99.90;;;;;;4957110;28;20050;-77
2023/09/10 02:54:38;;;;;;;18.70;16.80;;;21.70;99.90;;;;;;4940396;29;20019;-77
2023/09/10 02:57:04;;;;;;;19.35;17.35;;;21.60;99.90;;;;;;4964400;28;20122;-77
2023/09/10 02:59:29;;;;;;;19.58;17.60;;;21.60;99.90;;;;;;4961338;28;20089;-77
2023/09/10 03:01:55;;;;;;;18.95;17.05;;;21.60;99.90;;;;;;4956500;28;20023;-77
2023/09/10 03:04:21;;;;;;;19.95;17.95;;;21.60;99.90;;;;;;4958761;28;20024;-76
2023/09/10 03:06:48;;;;;;;20.00;17.90;;;21.60;99.90;;;;;;4964178;28;20061;-77
2023/09/10 03:09:14;;;;;;;19.48;17.58;;;21.60;99.90;;;;;;4957936;28;20050;-77
2023/09/10 03:11:42;;;;;;;19.95;17.08;;;21.60;99.90;;;;;;4966683;28;20031;-76
2023/09/10 03:14:08;;;;;;;21.73;19.45;;;21.50;99.90;;;;;;4957390;28;20047;-77
2023/09/10 03:16:35;;;;;;;20.10;18.05;;;21.50;99.90;;;;;;4944448;29;20109;-76
2023/09/10 03:19:01;;;;;;;19.45;17.65;;;21.50;99.90;;;;;;4964329;28;20035;-77
2023/09/10 03:21:27;;;;;;;22.15;18.95;;;21.50;99.90;;;;;;4963908;28;20600;-77
2023/09/10 03:23:54;;;;;;;21.67;19.42;;;21.50;99.90;;;;;;4941669;29;20057;-77
2023/09/10 03:26:20;;;;;;;20.50;18.30;;;21.50;99.90;;;;;;4963738;28;20023;-77
2023/09/10 03:28:46;;;;;;;20.52;18.50;;;21.50;99.90;;;;;;4960530;28;20027;-77
2023/09/10 03:31:11;;;;;;;21.75;19.65;;;21.50;99.90;;;;;;4955865;28;20023;-77
2023/09/10 03:33:37;;;;;;;23.00;20.33;;;21.50;99.90;;;;;;4962038;28;20494;-77
2023/09/10 03:36:03;;;;;;;22.30;20.10;;;21.50;99.90;;;;;;4963786;28;20489;-77
2023/09/10 03:38:29;;;;;;;22.77;20.58;;;21.50;99.90;;;;;;4950277;29;20023;-77
2023/09/10 03:40:55;;;;;;;22.80;20.60;;;21.50;99.90;;;;;;4961328;28;20454;-77
2023/09/10 03:43:20;;;;;;;24.80;22.30;;;21.50;99.90;;;;;;4956067;28;20037;-77
2023/09/10 03:45:46;;;;;;;21.88;19.77;;;21.50;99.90;;;;;;4959315;28;20027;-77
2023/09/10 03:48:12;;;;;;;20.33;18.33;;;21.50;99.90;;;;;;4963583;28;20089;-76
2023/09/10 03:50:38;;;;;;;24.23;21.67;;;21.50;99.90;;;;;;4957448;28;20030;-76
2023/09/10 03:53:04;;;;;;;22.88;20.48;;;21.50;99.90;;;;;;4955733;28;20039;-76
2023/09/10 03:55:30;;;;;;;24.60;22.15;;;21.50;99.90;;;;;;4963019;28;20509;-76
2023/09/10 03:57:56;;;;;;;24.35;22.05;;;21.50;99.90;;;;;;4961681;28;20058;-77
2023/09/10 04:00:21;;;;;;;23.40;21.10;;;21.40;99.90;;;;;;4954993;28;20030;-76
2023/09/10 04:02:47;;;;;;;22.30;20.00;;;21.40;99.90;;;;;;4959004;28;20451;-77
2023/09/10 04:05:13;;;;;;;25.08;22.58;;;21.40;99.90;;;;;;4963028;28;20034;-76
2023/09/10 04:07:39;;;;;;;23.70;21.45;;;21.40;99.90;;;;;;4957275;28;20110;-77
2023/09/10 04:10:07;;;;;;;24.95;22.48;;;21.40;99.90;;;;;;4955270;28;20209;-76
2023/09/10 04:12:32;;;;;;;24.15;21.65;;;21.40;99.90;;;;;;4954924;28;20031;-76
2023/09/10 04:14:58;;;;;;;23.05;20.73;;;21.40;99.90;;;;;;4960271;28;20043;-77
2023/09/10 04:17:28;;;;;;;24.38;21.98;;;21.40;99.90;;;;;;4945219;28;20638;-76
2023/09/10 04:19:54;;;;;;;21.85;19.77;;;21.30;99.90;;;;;;4956376;28;20085;-76
2023/09/10 04:22:20;;;;;;;23.63;21.27;;;21.30;99.90;;;;;;4955559;28;20118;-76
2023/09/10 04:24:46;;;;;;;24.50;21.95;;;21.30;99.90;;;;;;4963168;28;20437;-77
2023/09/10 04:27:12;;;;;;;22.35;20.08;;;21.30;99.90;;;;;;4959903;28;20093;-77
2023/09/10 04:29:37;;;;;;;21.35;19.25;;;21.30;99.90;;;;;;4954842;28;20719;-77
2023/09/10 04:32:03;;;;;;;23.45;21.10;;;21.30;99.90;;;;;;4942021;29;20062;-77
2023/09/10 04:34:29;;;;;;;25.35;22.83;;;21.30;99.90;;;;;;4945465;28;20058;-77
2023/09/10 04:36:54;;;;;;;25.08;22.67;;;21.20;99.90;;;;;;4955971;28;20027;-76
2023/09/10 04:39:20;;;;;;;23.10;20.20;;;21.20;99.90;;;;;;4955489;28;20078;-77
2023/09/10 04:41:46;;;;;;;23.02;20.73;;;21.20;99.90;;;;;;4962455;28;20027;-77
2023/09/10 04:44:12;;;;;;;24.50;22.00;;;21.20;99.90;;;;;;4959911;28;20027;-77
2023/09/10 04:46:38;;;;;;;32.30;21.10;;;21.20;99.90;;;;;;4936891;28;20026;-76
2023/09/10 04:49:03;;;;;;;24.15;21.65;;;21.20;99.90;;;;;;4959803;28;20485;-77
2023/09/10 04:51:29;;;;;;;23.23;20.75;;;21.20;99.90;;;;;;4962263;28;20038;-77
2023/09/10 04:53:55;;;;;;;26.77;24.08;;;21.20;99.90;;;;;;4956179;28;20014;-77
2023/09/10 04:56:21;;;;;;;26.08;23.45;;;21.20;99.90;;;;;;4955376;28;20087;-76
2023/09/10 04:58:47;;;;;;;24.98;22.50;;;21.20;99.90;;;;;;4962539;28;20066;-76
2023/09/10 05:01:13;;;;;;;26.65;23.88;;;21.20;99.90;;;;;;4959257;28;20026;-76
2023/09/10 05:03:41;;;;;;;24.63;22.10;;;21.20;99.90;;;;;;4951243;28;20753;-77
2023/09/10 05:06:07;;;;;;;25.42;22.83;;;21.20;99.90;;;;;;4948961;29;20034;-76
2023/09/10 05:08:34;;;;;;;27.08;24.42;;;21.20;99.90;;;;;;4948858;29;20107;-77
2023/09/10 05:11:00;;;;;;;26.00;23.42;;;21.10;99.90;;;;;;4951697;28;20473;-76
2023/09/10 05:13:26;;;;;;;24.88;22.40;;;21.10;99.90;;;;;;4940990;28;20061;-76
2023/09/10 05:15:57;;;;;;;25.60;23.13;;;21.10;99.90;;;;;;4936230;28;20154;-76
2023/09/10 05:18:26;;;;;;;24.58;22.10;;;21.10;99.90;;;;;;4959887;28;20908;-77
2023/09/10 05:20:53;;;;;;;27.55;24.85;;;21.10;99.90;;;;;;4961896;28;20143;-76
2023/09/10 05:23:22;;;;;;;25.20;22.58;;;21.10;99.90;;;;;;4955309;28;20030;-76
2023/09/10 05:25:49;;;;;;;26.77;24.20;;;21.10;99.90;;;;;;4954386;28;20497;-77
2023/09/10 05:28:15;;;;;;;25.25;22.65;;;21.10;99.90;;;;;;4962225;28;20016;-76
2023/09/10 05:30:40;;;;;;;25.58;22.88;;;21.10;99.90;;;;;;4960025;28;20050;-77
2023/09/10 05:33:06;;;;;;;25.13;22.52;;;21.00;99.90;;;;;;4954041;28;20814;-76
2023/09/10 05:35:32;;;;;;;25.27;22.77;;;21.00;99.90;;;;;;4940782;29;20050;-76
2023/09/10 05:37:57;;;;;;;26.52;23.35;;;21.10;99.90;;;;;;4962288;28;20573;-76
2023/09/10 05:40:25;;;;;;;27.27;24.48;;;21.00;99.90;;;;;;4955585;28;20051;-77
2023/09/10 05:42:50;;;;;;;26.05;23.45;;;21.00;99.90;;;;;;4953756;28;20031;-76
2023/09/10 05:45:16;;;;;;;25.98;23.38;;;21.00;99.90;;;;;;4940715;28;20025;-76
2023/09/10 05:47:42;;;;;;;26.75;23.95;;;21.10;99.90;;;;;;4956093;28;20549;-76
2023/09/10 05:50:08;;;;;;;27.73;25.02;;;21.00;99.90;;;;;;4962233;28;20146;-77
2023/09/10 05:52:33;;;;;;;25.55;23.13;;;21.10;99.90;;;;;;4957511;28;20069;-77
2023/09/10 05:54:59;;;;;;;24.25;21.80;;;21.00;99.90;;;;;;4952759;28;20085;-77
2023/09/10 05:57:24;;;;;;;25.27;22.55;;;21.00;99.90;;;;;;4959858;28;20058;-76
2023/09/10 05:59:50;;;;;;;27.58;24.75;;;21.10;99.90;;;;;;4961811;28;20450;-77
2023/09/10 06:02:16;;;;;;;24.52;22.13;;;21.10;99.90;;;;;;4948080;28;20026;-76
2023/09/10 06:04:41;;;;;;;26.38;23.33;;;21.10;99.90;;;;;;4942380;28;20033;-76
2023/09/10 06:07:07;;;;;;;24.55;22.05;;;21.10;99.90;;;;;;4953665;28;20134;-76
2023/09/10 06:09:33;;;;;;;25.55;22.95;;;21.20;99.90;;;;;;4958119;28;20030;-76
2023/09/10 06:12:02;;;;;;;25.08;22.50;;;21.20;99.90;;;;;;4951736;28;20493;-77
2023/09/10 06:14:30;;;;;;;24.50;22.13;;;21.20;99.90;;;;;;4961624;28;20027;-76
2023/09/10 06:16:56;;;;;;;27.20;24.55;;;21.20;99.90;;;;;;4957993;28;20608;-76
2023/09/10 06:19:22;;;;;;;27.60;24.88;;;21.20;99.90;;;;;;4953701;28;20489;-76
2023/09/10 06:21:47;;;;;;;27.90;25.02;;;21.30;99.90;;;;;;4958651;28;20071;-76
2023/09/10 06:24:13;;;;;;;29.77;26.77;;;21.30;99.90;;;;;;4961708;28;20019;-76
2023/09/10 06:26:39;;;;;;;28.33;25.40;;;21.30;99.90;;;;;;4954460;28;20334;-76
2023/09/10 06:29:05;;;;;;;29.15;26.33;;;21.30;99.90;;;;;;4958432;28;20023;-76
2023/09/10 06:31:31;;;;;;;29.90;26.40;;;21.40;99.90;;;;;;4963146;28;20023;-76
2023/09/10 06:33:57;;;;;;;28.60;25.75;;;21.40;99.90;;;;;;4962171;28;20026;-76
2023/09/10 06:36:23;;;;;;;27.77;24.98;;;21.40;99.90;;;;;;4956649;28;20454;-76
2023/09/10 06:38:49;;;;;;;26.35;23.75;;;21.40;99.90;;;;;;4944446;29;20114;-76
2023/09/10 06:41:15;;;;;;;29.05;25.80;;;21.50;99.90;;;;;;4964213;28;20035;-77
2023/09/10 06:43:42;;;;;;;28.58;25.65;;;21.50;99.90;;;;;;4951232;28;20019;-78
2023/09/10 06:46:07;;;;;;;29.55;26.65;;;21.50;99.90;;;;;;4963474;28;20482;-78
2023/09/10 06:48:33;;;;;;;28.40;25.60;;;21.60;99.90;;;;;;4952075;28;20019;-77
2023/09/10 06:51:00;;;;;;;28.45;25.67;;;21.70;99.90;;;;;;4944262;28;20054;-77
2023/09/10 06:53:31;;;;;;;26.83;24.35;;;21.70;99.90;;;;;;4956939;28;20090;-78
2023/09/10 06:55:57;;;;;;;28.63;25.90;;;21.70;99.90;;;;;;4960636;28;20035;-78
2023/09/10 06:58:23;;;;;;;28.52;25.52;;;21.70;99.90;;;;;;4964344;28;20082;-78
2023/09/10 07:00:49;;;;;;;32.72;29.52;;;21.80;99.90;;;;;;4958412;28;20031;-77
2023/09/10 07:03:15;;;;;;;30.33;27.27;;;21.80;99.90;;;;;;4956962;28;20128;-78
2023/09/10 07:05:42;;;;;;;33.30;30.10;;;21.90;99.90;;;;;;4964499;28;20357;-76
2023/09/10 07:08:08;;;;;;;34.67;31.27;;;21.90;99.90;;;;;;4962346;28;20513;-76
2023/09/10 07:10:35;;;;;;;33.75;30.48;;;21.90;99.90;;;;;;4956201;28;20759;-76
2023/09/10 07:13:07;;;;;;;33.47;30.20;;;22.00;99.90;;;;;;4956515;28;20118;-76
2023/09/10 07:15:36;;;;;;;32.72;29.52;;;22.00;99.90;;;;;;4957150;28;20046;-78
2023/09/10 07:18:04;;;;;;;33.75;30.52;;;22.10;99.90;;;;;;4963941;28;20094;-77
2023/09/10 07:20:29;;;;;;;30.17;27.17;;;22.10;99.90;;;;;;4962017;28;20111;-77
2023/09/10 07:22:55;;;;;;;36.53;32.92;;;22.20;99.90;;;;;;4955917;28;20138;-77
2023/09/10 07:25:25;;;;;;;32.45;29.30;;;22.20;99.90;;;;;;4960683;28;20027;-77
2023/09/10 07:27:51;;;;;;;30.58;27.70;;;22.30;99.90;;;;;;4946455;28;20497;-77
2023/09/10 07:30:16;;;;;;;33.80;30.50;;;22.30;99.90;;;;;;4950496;29;20042;-77
2023/09/10 07:32:42;;;;;;;32.50;29.40;;;22.40;99.90;;;;;;4963726;28;20023;-77
2023/09/10 07:35:08;;;;;;;32.35;29.25;;;22.40;99.90;;;;;;4956664;28;20494;-77
2023/09/10 07:37:34;;;;;;;33.92;30.52;;;22.50;99.90;;;;;;4956588;28;20126;-77
2023/09/10 07:39:59;;;;;;;35.55;32.05;;;22.50;99.90;;;;;;4963312;28;20059;-77
2023/09/10 07:42:25;;;;;;;36.17;32.58;;;22.60;99.90;;;;;;4942694;28;20026;-77
2023/09/10 07:44:51;;;;;;;37.28;33.33;;;22.60;99.90;;;;;;4956055;28;20023;-77
2023/09/10 07:47:16;;;;;;;34.35;30.83;;;22.70;99.90;;;;;;4961269;28;20027;-77
2023/09/10 07:49:42;;;;;;;33.70;30.35;;;22.80;99.90;;;;;;4963935;28;20405;-77
2023/09/10 07:52:08;;;;;;;35.92;32.47;;;22.80;99.90;;;;;;4955968;28;20481;-78
2023/09/10 07:54:35;;;;;;;33.22;29.67;;;22.90;99.90;;;;;;4957429;28;20027;-77
2023/09/10 07:57:01;;;;;;;35.08;31.45;;;22.90;99.90;;;;;;4950042;28;20049;-78
2023/09/10 07:59:27;;;;;;;34.28;31.05;;;23.00;99.90;;;;;;4939473;29;20497;-78
2023/09/10 08:01:53;;;;;;;38.88;35.10;;;23.00;99.90;;;;;;4963352;28;20149;-77
2023/09/10 08:04:19;;;;;;;34.78;31.42;;;23.10;99.90;;;;;;4958041;28;20027;-77
2023/09/10 08:06:44;;;;;;;35.10;31.75;;;23.10;99.90;;;;;;4955116;28;20457;-78
2023/09/10 08:09:10;;;;;;;35.75;32.28;;;23.20;99.90;;;;;;4962560;28;20031;-78
2023/09/10 08:11:36;;;;;;;37.47;33.55;;;23.30;99.90;;;;;;4952731;28;20043;-77
2023/09/10 08:14:02;;;;;;;38.63;34.67;;;23.30;99.90;;;;;;4963321;28;20203;-77
2023/09/10 08:16:28;;;;;;;42.67;38.20;;;23.40;99.90;;;;;;4955731;28;20027;-78
2023/09/10 08:18:54;;;;;;;37.65;33.92;;;23.50;99.90;;;;;;4956405;28;20033;-77
2023/09/10 08:21:20;;;;;;;39.67;35.65;;;23.60;99.90;;;;;;4967496;28;20022;-78
2023/09/10 08:23:47;;;;;;;38.28;34.58;;;23.60;99.90;;;;;;4958397;28;20102;-77
2023/09/10 08:26:13;;;;;;;36.42;32.72;;;23.70;99.90;;;;;;4945265;28;20082;-77
2023/09/10 08:28:39;;;;;;;36.17;32.58;;;23.70;99.90;;;;;;4940913;28;20014;-78
2023/09/10 08:31:05;;;;;;;40.45;36.35;;;23.80;99.90;;;;;;4953593;28;20023;-77
2023/09/10 08:33:31;;;;;;;39.05;35.15;;;23.90;99.90;;;;;;4961704;28;20027;-78
2023/09/10 08:35:57;;;;;;;36.92;32.97;;;23.90;99.90;;;;;;4962073;28;20037;-77
2023/09/10 08:38:23;;;;;;;37.63;33.85;;;24.00;99.90;;;;;;4954712;28;20437;-78
2023/09/10 08:41:07;;;;;;;38.88;35.08;;;24.10;99.90;;;;;;4957548;28;20054;-77
2023/09/10 08:44:05;;;;;;;36.25;32.58;;;24.20;99.90;;;;;;4962411;28;20516;-77
2023/09/10 08:46:34;;;;;;;37.97;34.13;;;24.20;99.90;;;;;;4944193;28;20045;-78
2023/09/10 08:49:00;;;;;;;33.95;30.42;;;24.30;99.90;;;;;;4956959;28;20092;-77
2023/09/10 08:51:27;;;;;;;37.63;33.85;;;24.40;99.90;;;;;;4953904;28;20027;-77
2023/09/10 08:53:57;;;;;;;35.15;31.65;;;24.40;99.90;;;;;;4962070;28;20051;-77
2023/09/10 08:56:23;;;;;;;30.88;27.55;;;24.50;99.90;;;;;;4961553;28;20046;-78
2023/09/10 08:58:51;;;;;;;36.08;30.77;;;24.60;99.90;;;;;;4954594;28;20089;-77
2023/09/10 09:01:18;;;;;;;35.40;31.42;;;24.60;99.90;;;;;;4956678;28;20022;-77
2023/09/10 09:03:46;;;;;;;34.80;30.70;;;24.70;99.90;;;;;;4945879;28;20114;-78
2023/09/10 09:06:12;;;;;;;33.97;30.15;;;24.80;99.90;;;;;;4958031;28;20592;-78
2023/09/10 09:08:41;;;;;;;37.13;33.13;;;24.90;99.90;;;;;;4962238;28;20113;-78
2023/09/10 09:11:08;;;;;;;29.33;26.25;;;24.90;99.90;;;;;;4936427;29;20030;-77
2023/09/10 09:13:45;;;;;;;29.40;26.33;;;25.00;99.90;;;;;;4959576;28;20033;-78
2023/09/10 09:16:11;;;;;;;35.53;26.17;;;25.10;99.90;;;;;;4954024;28;20127;-78
2023/09/10 09:18:39;;;;;;;33.95;29.67;;;25.20;99.90;;;;;;4957749;28;20478;-78
2023/09/10 09:21:14;;;;;;;31.80;26.52;;;25.30;99.90;;;;;;4962159;28;20390;-78
2023/09/10 09:23:47;;;;;;;28.75;25.77;;;25.40;99.90;;;;;;4941079;28;20918;-78
2023/09/10 09:26:14;;;;;;;28.55;25.67;;;25.50;99.90;;;;;;4953986;28;20015;-76
2023/09/10 09:28:40;;;;;;;30.63;26.85;;;25.60;99.90;;;;;;4941382;29;20435;-76
2023/09/10 09:31:10;;;;;;;26.42;23.75;;;25.60;99.90;;;;;;4962117;28;20078;-76
2023/09/10 09:33:39;;;;;;;25.42;22.73;;;25.70;99.90;;;;;;4938577;28;20521;-76
2023/09/10 09:36:09;;;;;;;28.48;23.48;;;25.80;99.90;;;;;;4954184;28;20035;-76
2023/09/10 09:38:35;;;;;;;26.60;23.20;;;25.90;99.90;;;;;;4959832;28;20031;-76
2023/09/10 09:41:06;;;;;;;26.27;22.90;;;25.90;99.90;;;;;;4960613;28;20050;-76
2023/09/10 09:43:35;;;;;;;25.80;22.30;;;26.00;99.90;;;;;;4953696;28;20019;-76
2023/09/10 09:46:01;;;;;;;23.10;20.75;;;26.10;99.90;;;;;;4956065;28;20027;-77
2023/09/10 09:48:27;;;;;;;23.08;20.55;;;26.20;99.90;;;;;;4961721;28;20015;-77
2023/09/10 09:50:54;;;;;;;22.88;20.48;;;26.30;99.90;;;;;;4948722;29;20037;-77
2023/09/10 09:53:24;;;;;;;24.30;21.67;;;26.40;99.90;;;;;;4943139;29;20568;-77
2023/09/10 09:55:56;;;;;;;24.20;18.65;;;26.40;99.90;;;;;;4930981;29;20063;-77
2023/09/10 09:58:22;;;;;;;23.98;18.15;;;26.50;99.90;;;;;;4960135;28;20031;-77
2023/09/10 10:00:48;;;;;;;27.70;21.27;;;26.60;99.90;;;;;;4956262;28;20481;-77
2023/09/10 10:03:16;;;;;;;22.67;18.00;;;26.60;99.90;;;;;;4956444;28;20066;-76
2023/09/10 10:05:42;;;;;;;19.23;15.43;;;26.70;99.90;;;;;;4944500;28;20026;-77
2023/09/10 10:08:08;;;;;;;22.75;19.20;;;26.80;99.90;;;;;;4941903;29;20482;-77
2023/09/10 10:10:35;;;;;;;24.73;19.08;;;26.80;99.90;;;;;;4965760;28;20489;-77
2023/09/10 10:13:01;;;;;;;16.95;15.20;;;26.90;99.90;;;;;;4963460;28;20036;-77
2023/09/10 10:15:27;;;;;;;18.35;16.40;;;27.00;99.90;;;;;;4963818;28;20034;-77
2023/09/10 10:17:54;;;;;;;19.83;16.25;;;27.10;99.90;;;;;;4957224;28;20031;-77
2023/09/10 10:20:21;;;;;;;17.42;14.50;;;27.10;99.90;;;;;;4943394;29;20027;-77
2023/09/10 10:22:47;;;;;;;18.88;15.65;;;27.20;99.90;;;;;;4950557;28;20031;-77
2023/09/10 10:25:13;;;;;;;19.27;16.40;;;27.30;99.90;;;;;;4960267;28;20648;-77
2023/09/10 10:27:43;;;;;;;21.20;14.73;;;27.30;99.90;;;;;;4957088;28;20110;-77
2023/09/10 10:30:09;;;;;;;22.40;14.45;;;27.40;99.90;;;;;;4963975;28;20066;-76
2023/09/10 10:32:39;;;;;;;18.25;14.88;;;27.40;99.90;;;;;;4964171;28;20561;-77
2023/09/10 10:35:06;;;;;;;17.60;10.85;;;27.50;99.90;;;;;;4944308;28;20023;-77
2023/09/10 10:37:46;;;;;;;18.02;9.88;;;27.60;99.90;;;;;;4958573;28;20505;-76
2023/09/10 10:40:13;;;;;;;14.23;9.70;;;27.70;99.90;;;;;;4944207;28;20057;-77
2023/09/10 10:43:03;;;;;;;19.30;11.00;;;27.70;99.90;;;;;;4958545;28;20042;-77
2023/09/10 10:45:30;;;;;;;15.60;12.00;;;27.80;99.90;;;;;;4922442;29;20031;-78
2023/09/10 10:48:00;;;;;;;17.88;10.50;;;27.90;99.90;;;;;;4964401;28;20031;-77
2023/09/10 10:50:27;;;;;;;14.75;9.50;;;28.00;99.90;;;;;;4937965;29;20645;-77
2023/09/10 10:53:00;;;;;;;14.63;9.68;;;28.10;99.90;;;;;;4963077;28;20047;-77
2023/09/10 10:55:27;;;;;;;19.00;9.38;;;28.10;99.90;;;;;;4956876;28;20029;-77
2023/09/10 10:57:54;;;;;;;13.77;8.82;;;28.20;99.90;;;;;;4958761;28;20459;-78
2023/09/10 11:00:21;;;;;;;15.05;8.38;;;28.30;99.90;;;;;;4964476;28;20051;-78
2023/09/10 11:03:06;;;;;;;11.27;8.05;;;28.40;99.90;;;;;;4960132;28;20027;-78
2023/09/10 11:05:51;;;;;;;17.63;8.20;;;28.40;99.90;;;;;;4963501;28;20021;-78
2023/09/10 11:08:37;;;;;;;12.57;7.70;;;28.50;99.90;;;;;;4963508;28;20026;-77
2023/09/10 11:11:06;;;;;;;12.85;7.72;;;28.50;99.90;;;;;;4943363;28;20023;-78
2023/09/10 11:13:32;;;;;;;13.40;7.93;;;28.60;99.90;;;;;;4959633;28;20027;-78
2023/09/10 11:16:03;;;;;;;14.75;8.50;;;28.60;99.90;;;;;;4956672;28;20035;-77
2023/09/10 11:18:36;;;;;;;18.17;9.90;;;28.70;99.90;;;;;;4960672;28;20086;-78
2023/09/10 11:21:02;;;;;;;15.48;7.60;;;28.80;99.90;;;;;;4964040;28;20089;-78
2023/09/10 11:23:28;;;;;;;10.85;7.63;;;28.90;99.90;;;;;;4958405;28;20023;-78
2023/09/10 11:26:13;;;;;;;13.65;6.72;;;28.90;99.90;;;;;;4956297;28;20027;-78
2023/09/10 11:28:53;;;;;;;14.77;6.95;;;29.00;99.90;;;;;;4943187;29;20034;-77
2023/09/10 11:31:38;;;;;;;16.95;8.40;;;29.10;99.90;;;;;;4936142;28;20029;-78
2023/09/10 11:34:23;;;;;;;9.48;6.28;;;29.10;99.90;;;;;;4958195;28;20087;-78
2023/09/10 11:36:55;;;;;;;16.30;7.20;;;29.20;99.90;;;;;;4937135;28;20398;-78
2023/09/10 11:39:21;;;;;;;14.65;6.75;;;29.30;99.90;;;;;;4962566;28;20082;-78
2023/09/10 11:41:51;;;;;;;10.07;6.78;;;29.30;99.90;;;;;;4951880;28;20430;-78
2023/09/10 11:44:17;;;;;;;;;;;29.30;99.60;;;;;;4958202;28;20019;-77
2023/09/10 11:46:46;;;;;;;11.63;6.88;;;29.40;99.90;;;;;;4963482;28;20001;-77
2023/09/10 11:49:12;;;;;;;9.52;6.50;;;29.50;99.80;;;;;;4959839;28;20457;-78
2023/09/10 11:51:45;;;;;;;13.07;7.00;;;29.50;99.90;;;;;;4955262;28;20020;-77
2023/09/10 11:54:18;;;;;;;9.50;6.30;;;29.60;98.90;;;;;;4960286;28;20031;-78
2023/09/10 11:56:58;;;;;;;12.40;6.43;;;29.70;99.50;;;;;;4945754;28;20027;-78
2023/09/10 11:59:26;;;;;;;10.75;6.40;;;29.80;99.40;;;;;;4941859;28;20093;-78
2023/09/10 12:01:54;;;;;;;13.77;6.57;;;29.80;98.60;;;;;;4955394;28;20110;-78
2023/09/10 12:04:20;;;;;;;12.63;6.45;;;29.90;98.20;;;;;;4948322;28;20031;-78
2023/09/10 12:06:46;;;;;;;14.05;7.10;;;29.90;98.40;;;;;;4955317;28;20027;-78
2023/09/10 12:09:13;;;;;;;10.70;6.32;;;30.00;97.90;;;;;;4945045;29;20023;-78
2023/09/10 12:11:40;;;;;;;9.02;6.20;;;30.00;98.10;;;;;;4953039;28;20429;-78
2023/09/10 12:14:06;;;;;;;9.80;5.60;;;30.00;98.40;;;;;;4963513;28;20031;-78
2023/09/10 12:16:32;;;;;;;10.95;6.50;;;30.10;98.60;;;;;;4956763;28;20092;-78
2023/09/10 12:18:58;;;;;;;12.05;5.30;;;30.20;98.60;;;;;;4955548;28;20478;-78
2023/09/10 12:21:24;;;;;;;12.52;5.80;;;30.20;98.50;;;;;;4963057;28;20019;-78
2023/09/10 12:23:50;;;;;;;14.60;6.28;;;30.20;98.80;;;;;;4960180;28;20029;-78
2023/09/10 12:26:19;;;;;;;10.30;5.82;;;30.30;98.00;;;;;;4954785;28;20015;-78
2023/09/10 12:28:45;;;;;;;10.68;6.15;;;30.30;98.10;;;;;;4958734;28;20067;-78
2023/09/10 12:31:11;;;;;;;10.90;5.95;;;30.30;98.10;;;;;;4951056;28;20090;-78